Terminal Aerodrome Forecast
Issued by NWS

Home | Current Version | Previous Version | Text Only | Print | Product List | Glossary On
Versions: 1 2 3 4 5 6 7 8 9 10 11 12 13 14 15 16 17 18 19 20 21 22 23 24
838
FTUS43 KPAH 181729
TAFCGI
TAF
KCGI 181729Z 1818/1918 VRB03KT P6SM OVC013
     FM182200 15003KT P6SM OVC020
     FM190300 VRB03KT P6SM VCSH OVC015
     FM190900 08004KT 3SM SHRA BR OVC008
     FM191400 10005KT 2SM -SHRA BR OVC004=

USA.gov is the U.S. government's official web portal to all federal, state and local government web resources and services.